Time;durP1;ratioP1;P1;durP2;ratioP2;P2;SDS_P1;SDS_P2;PMS_P1;PMS_P2;Temp;Humidity;BMP_temperature;BMP_pressure;BME280_temperature;BME280_humidity;BME280_pressure;Samples;Min_cycle;Max_cycle;Signal;HPM_P1;HPM_P2
2023/05/21 00:02:33;;;;;;;21.48;13.20;;;;;;;;;;10206731;29;20082;-87
2023/05/21 00:07:34;;;;;;;19.85;13.43;;;;;;;;;;10239527;28;20078;-90
2023/05/21 00:12:35;;;;;;;20.00;12.88;;;;;;;;;;10245724;28;20090;-87
2023/05/21 00:17:36;;;;;;;20.52;12.05;;;;;;;;;;10253665;28;20124;-91
2023/05/21 00:22:37;;;;;;;16.80;10.95;;;;;;;;;;10239444;28;20086;-88
2023/05/21 00:27:38;;;;;;;15.68;11.25;;;;;;;;;;10238819;28;20041;-88
2023/05/21 00:32:39;;;;;;;19.75;12.15;;;;;;;;;;10249439;28;20447;-88
2023/05/21 00:37:40;;;;;;;15.05;10.98;;;;;;;;;;10229777;28;20043;-87
2023/05/21 00:42:41;;;;;;;14.38;10.70;;;;;;;;;;10251271;28;20437;-88
2023/05/21 00:47:42;;;;;;;18.50;12.32;;;;;;;;;;10225322;28;20082;-90
2023/05/21 00:52:44;;;;;;;18.13;11.40;;;;;;;;;;10219803;28;20041;-91
2023/05/21 00:57:45;;;;;;;19.75;12.73;;;;;;;;;;10238159;28;20043;-88
2023/05/21 01:02:48;;;;;;;21.45;14.00;;;;;;;;;;10246613;28;20700;-88
2023/05/21 01:07:49;;;;;;;23.83;13.93;;;;;;;;;;10237461;28;20051;-88
2023/05/21 01:12:51;;;;;;;19.63;12.75;;;;;;;;;;10255638;28;20034;-89
2023/05/21 01:17:53;;;;;;;18.65;12.13;;;;;;;;;;10240662;28;20269;-88
2023/05/21 01:22:57;;;;;;;16.25;11.80;;;;;;;;;;10255220;28;20558;-90
2023/05/21 01:27:58;;;;;;;20.17;12.75;;;;;;;;;;10257282;28;20046;-88
2023/05/21 01:33:14;;;;;;;18.95;12.75;;;;;;;;;;10257924;28;20027;-87
2023/05/21 01:38:15;;;;;;;20.45;12.52;;;;;;;;;;10245426;28;20046;-88
2023/05/21 01:43:17;;;;;;;22.40;13.38;;;;;;;;;;10228111;28;20098;-89
2023/05/21 01:48:18;;;;;;;18.67;12.10;;;;;;;;;;10253481;28;20058;-88
2023/05/21 01:53:19;;;;;;;15.43;11.00;;;;;;;;;;10234387;28;20049;-88
2023/05/21 01:58:21;;;;;;;14.98;10.88;;;;;;;;;;10255202;28;20074;-87
2023/05/21 02:03:25;;;;;;;16.38;11.30;;;;;;;;;;10230681;28;20046;-89
2023/05/21 02:08:28;;;;;;;13.85;10.05;;;;;;;;;;10230603;28;20050;-87
2023/05/21 02:13:29;;;;;;;13.43;9.88;;;;;;;;;;10237680;28;20038;-88
2023/05/21 02:18:30;;;;;;;13.52;10.07;;;;;;;;;;10245481;28;20043;-87
2023/05/21 02:23:31;;;;;;;13.25;9.65;;;;;;;;;;10230160;28;20031;-88
2023/05/21 02:28:32;;;;;;;14.80;9.95;;;;;;;;;;10241723;28;20130;-86
2023/05/21 02:33:33;;;;;;;14.65;9.13;;;;;;;;;;10239139;28;20649;-87
2023/05/21 02:38:34;;;;;;;15.10;10.00;;;;;;;;;;10231102;28;20043;-87
2023/05/21 02:43:35;;;;;;;14.25;9.93;;;;;;;;;;10227132;28;20035;-87
2023/05/21 02:48:36;;;;;;;13.18;9.13;;;;;;;;;;10243915;28;20043;-86
2023/05/21 02:53:37;;;;;;;12.93;9.00;;;;;;;;;;10229659;28;20089;-87
2023/05/21 02:58:38;;;;;;;13.55;9.60;;;;;;;;;;10251767;28;20105;-90
2023/05/21 03:03:39;;;;;;;13.27;8.93;;;;;;;;;;10223845;28;20030;-89
2023/05/21 03:08:40;;;;;;;14.85;8.32;;;;;;;;;;10235026;28;20628;-87
2023/05/21 03:13:41;;;;;;;11.13;7.97;;;;;;;;;;10228653;28;20050;-87
2023/05/21 03:18:43;;;;;;;9.70;7.72;;;;;;;;;;10225147;28;20035;-87
2023/05/21 03:23:45;;;;;;;11.82;8.18;;;;;;;;;;10227998;28;20070;-87
2023/05/21 03:28:46;;;;;;;9.73;7.50;;;;;;;;;;10275612;28;20479;-87
2023/05/21 03:33:47;;;;;;;10.35;7.50;;;;;;;;;;10251355;28;20085;-88
2023/05/21 03:38:48;;;;;;;10.75;7.57;;;;;;;;;;10244103;28;20035;-88
2023/05/21 03:43:49;;;;;;;10.57;7.07;;;;;;;;;;10232177;28;20042;-88
2023/05/21 03:48:50;;;;;;;10.82;7.25;;;;;;;;;;10253800;28;20392;-88
2023/05/21 03:53:51;;;;;;;11.68;6.65;;;;;;;;;;10249216;28;20138;-90
2023/05/21 03:58:52;;;;;;;10.23;6.75;;;;;;;;;;10244253;28;20040;-88
2023/05/21 04:03:53;;;;;;;9.48;6.28;;;;;;;;;;10246451;28;20038;-89
2023/05/21 04:08:54;;;;;;;13.05;6.70;;;;;;;;;;10220042;28;20859;-89
2023/05/21 04:13:55;;;;;;;8.43;6.32;;;;;;;;;;10236311;28;20058;-86
2023/05/21 04:18:56;;;;;;;8.52;6.50;;;;;;;;;;10241238;28;20144;-87
2023/05/21 04:23:59;;;;;;;8.38;6.20;;;;;;;;;;10244857;28;20032;-88
2023/05/21 04:29:03;;;;;;;10.75;6.50;;;;;;;;;;10235473;28;20024;-86
2023/05/21 04:34:05;;;;;;;9.23;6.43;;;;;;;;;;10228042;28;20043;-89
2023/05/21 04:39:06;;;;;;;7.65;5.68;;;;;;;;;;10228745;28;20034;-90
2023/05/21 04:44:07;;;;;;;8.95;5.97;;;;;;;;;;10241261;28;20384;-88
2023/05/21 04:49:10;;;;;;;12.52;6.03;;;;;;;;;;10221228;28;20035;-88
2023/05/21 04:54:11;;;;;;;7.35;5.53;;;;;;;;;;10236865;28;20673;-89
2023/05/21 04:59:12;;;;;;;7.93;5.57;;;;;;;;;;10223871;28;20051;-89
2023/05/21 05:04:13;;;;;;;8.00;5.30;;;;;;;;;;10221589;28;20171;-87
2023/05/21 05:09:15;;;;;;;10.90;5.10;;;;;;;;;;10198435;29;20056;-87
2023/05/21 05:14:16;;;;;;;7.50;5.15;;;;;;;;;;10193930;29;20455;-88
2023/05/21 05:19:18;;;;;;;8.38;4.88;;;;;;;;;;10194124;29;20054;-88
2023/05/21 05:24:19;;;;;;;7.80;5.10;;;;;;;;;;10199507;29;20038;-88
2023/05/21 05:29:20;;;;;;;10.65;5.25;;;;;;;;;;10197468;29;20040;-88
2023/05/21 05:34:21;;;;;;;10.05;4.88;;;;;;;;;;10186192;29;20035;-87
2023/05/21 05:39:22;;;;;;;8.88;5.20;;;;;;;;;;10200676;29;20103;-88
2023/05/21 05:44:23;;;;;;;9.32;5.05;;;;;;;;;;10199295;29;20036;-88
2023/05/21 05:49:24;;;;;;;7.60;4.68;;;;;;;;;;10200980;29;20032;-90
2023/05/21 05:54:25;;;;;;;10.23;5.15;;;;;;;;;;10208291;29;20139;-87
2023/05/21 05:59:26;;;;;;;10.40;4.82;;;;;;;;;;10210270;29;20788;-89
2023/05/21 06:04:28;;;;;;;9.02;4.97;;;;;;;;;;10207426;28;20447;-87
2023/05/21 06:09:30;;;;;;;8.98;5.03;;;;;;;;;;10235556;28;20034;-92
2023/05/21 06:14:31;;;;;;;9.25;4.97;;;;;;;;;;10227708;28;20050;-88
2023/05/21 06:19:32;;;;;;;9.40;4.68;;;;;;;;;;10223496;28;20047;-91
2023/05/21 06:24:33;;;;;;;9.00;5.32;;;;;;;;;;10238538;28;20036;-86
2023/05/21 06:29:34;;;;;;;9.48;5.72;;;;;;;;;;10230764;28;20031;-86
2023/05/21 06:34:35;;;;;;;13.45;6.32;;;;;;;;;;10247563;28;20027;-86
2023/05/21 06:39:36;;;;;;;11.80;5.38;;;;;;;;;;10246063;28;20042;-86
2023/05/21 06:44:37;;;;;;;11.05;5.53;;;;;;;;;;10244809;28;20040;-86
2023/05/21 06:49:39;;;;;;;13.25;6.13;;;;;;;;;;10239273;28;20047;-86
2023/05/21 06:54:41;;;;;;;10.88;5.57;;;;;;;;;;10245012;28;20037;-87
2023/05/21 06:59:42;;;;;;;11.90;5.90;;;;;;;;;;10257276;28;20086;-85
2023/05/21 07:04:43;;;;;;;14.57;6.10;;;;;;;;;;10232085;28;20119;-84
2023/05/21 07:09:44;;;;;;;9.55;4.90;;;;;;;;;;10244662;28;20161;-90
2023/05/21 07:14:45;;;;;;;11.07;5.00;;;;;;;;;;10231208;28;20170;-88
2023/05/21 07:19:46;;;;;;;11.63;5.28;;;;;;;;;;10216302;28;20514;-88
2023/05/21 07:24:47;;;;;;;13.88;6.35;;;;;;;;;;10248881;28;20038;-89
2023/05/21 07:29:48;;;;;;;8.75;4.90;;;;;;;;;;10224994;28;20027;-87
2023/05/21 07:34:49;;;;;;;15.13;5.68;;;;;;;;;;10237709;28;20431;-88
2023/05/21 07:39:50;;;;;;;9.18;4.20;;;;;;;;;;10243440;28;20031;-90
2023/05/21 07:44:51;;;;;;;8.98;4.32;;;;;;;;;;10217030;28;20563;-87
2023/05/21 07:49:52;;;;;;;5.68;3.72;;;;;;;;;;10225410;28;20038;-89
2023/05/21 07:54:53;;;;;;;8.88;4.03;;;;;;;;;;10245231;28;20046;-88
2023/05/21 07:59:54;;;;;;;10.93;3.90;;;;;;;;;;10225906;28;20070;-89
2023/05/21 08:04:55;;;;;;;8.68;3.47;;;;;;;;;;10234317;28;20509;-88
2023/05/21 08:09:56;;;;;;;6.15;3.45;;;;;;;;;;10227257;28;20490;-88
2023/05/21 08:14:58;;;;;;;4.45;2.55;;;;;;;;;;10237833;28;20031;-90
2023/05/21 08:19:59;;;;;;;3.22;2.55;;;;;;;;;;10243700;28;20046;-87
2023/05/21 08:25:00;;;;;;;7.63;2.90;;;;;;;;;;10223411;28;20035;-91
2023/05/21 08:30:01;;;;;;;4.68;2.97;;;;;;;;;;10244289;28;20048;-89
2023/05/21 08:35:02;;;;;;;6.88;3.45;;;;;;;;;;10251103;28;20048;-88
2023/05/21 08:40:05;;;;;;;5.22;2.65;;;;;;;;;;10244305;28;20029;-89
2023/05/21 08:45:06;;;;;;;6.93;2.65;;;;;;;;;;10226498;28;20066;-89
2023/05/21 08:50:09;;;;;;;4.45;2.83;;;;;;;;;;10240609;28;20114;-87
2023/05/21 08:55:10;;;;;;;9.15;2.88;;;;;;;;;;10222656;28;20487;-91
2023/05/21 09:00:11;;;;;;;3.50;2.65;;;;;;;;;;10224620;28;20110;-91
2023/05/21 09:05:12;;;;;;;8.85;2.72;;;;;;;;;;10225390;28;20059;-88
2023/05/21 09:10:13;;;;;;;5.30;2.83;;;;;;;;;;10239200;28;20077;-87
2023/05/21 09:15:14;;;;;;;6.30;3.30;;;;;;;;;;10238496;28;20047;-90
2023/05/21 09:20:16;;;;;;;5.35;3.08;;;;;;;;;;10201849;28;20073;-90
2023/05/21 09:25:18;;;;;;;3.95;2.92;;;;;;;;;;10227853;28;20090;-90
2023/05/21 09:30:19;;;;;;;5.53;3.33;;;;;;;;;;10240468;28;20588;-89
2023/05/21 09:35:21;;;;;;;3.03;2.60;;;;;;;;;;10237478;28;20043;-87
2023/05/21 09:40:23;;;;;;;5.40;3.05;;;;;;;;;;10247844;28;20221;-88
2023/05/21 09:45:25;;;;;;;6.93;2.75;;;;;;;;;;10235923;28;20061;-89
2023/05/21 09:50:30;;;;;;;4.35;2.67;;;;;;;;;;10235918;28;20035;-92
2023/05/21 09:55:31;;;;;;;8.00;3.40;;;;;;;;;;10230905;28;20225;-91
2023/05/21 10:00:41;;;;;;;6.82;2.85;;;;;;;;;;10233080;28;20423;-91
2023/05/21 10:05:53;;;;;;;6.90;3.08;;;;;;;;;;10243933;28;20058;-93
2023/05/21 10:10:54;;;;;;;4.28;3.13;;;;;;;;;;10229549;28;20035;-90
2023/05/21 10:15:59;;;;;;;4.18;2.50;;;;;;;;;;10224459;28;20067;-91
2023/05/21 10:21:00;;;;;;;6.53;2.72;;;;;;;;;;10230707;28;20039;-92
2023/05/21 10:26:04;;;;;;;4.68;3.05;;;;;;;;;;10229822;28;20499;-89
2023/05/21 10:31:05;;;;;;;3.92;2.78;;;;;;;;;;10230784;28;20109;-91
2023/05/21 10:36:06;;;;;;;6.32;3.17;;;;;;;;;;10251878;28;20043;-87
2023/05/21 10:41:07;;;;;;;6.43;2.80;;;;;;;;;;10232868;28;20110;-91
2023/05/21 10:46:19;;;;;;;3.83;2.83;;;;;;;;;;10232083;28;20122;-92
2023/05/21 10:51:32;;;;;;;5.22;3.10;;;;;;;;;;10218641;28;20078;-88
2023/05/21 10:56:42;;;;;;;4.90;2.75;;;;;;;;;;10232795;28;20042;-91
2023/05/21 11:02:03;;;;;;;4.55;2.80;;;;;;;;;;10245810;28;20526;-93
2023/05/21 11:07:05;;;;;;;3.63;2.70;;;;;;;;;;10230738;28;20055;-87
2023/05/21 11:12:08;;;;;;;3.05;2.75;;;;;;;;;;10233858;28;20044;-89
2023/05/21 11:17:15;;;;;;;3.75;2.88;;;;;;;;;;10220163;28;20194;-88
2023/05/21 11:22:26;;;;;;;3.78;2.60;;;;;;;;;;10254022;28;20059;-89
2023/05/21 11:27:33;;;;;;;4.85;2.60;;;;;;;;;;10247483;28;20375;-90
2023/05/21 11:32:38;;;;;;;5.38;2.90;;;;;;;;;;10242183;28;20463;-89
2023/05/21 11:37:40;;;;;;;5.90;2.92;;;;;;;;;;10227843;28;20039;-91
2023/05/21 11:42:42;;;;;;;3.42;3.05;;;;;;;;;;10231808;28;20046;-89
2023/05/21 11:47:44;;;;;;;7.90;3.55;;;;;;;;;;10233863;28;20039;-90
2023/05/21 11:52:45;;;;;;;5.60;3.00;;;;;;;;;;10249806;28;20045;-88
2023/05/21 11:57:46;;;;;;;5.70;2.58;;;;;;;;;;10245498;28;20037;-87
2023/05/21 12:02:49;;;;;;;4.60;2.90;;;;;;;;;;10225080;28;20038;-89
2023/05/21 12:07:51;;;;;;;5.18;2.60;;;;;;;;;;10206689;29;20055;-87
2023/05/21 12:12:52;;;;;;;6.22;3.03;;;;;;;;;;10200904;29;20034;-89
2023/05/21 12:18:00;;;;;;;5.07;3.08;;;;;;;;;;10209690;29;20047;-91
2023/05/21 12:23:08;;;;;;;5.10;2.70;;;;;;;;;;10203282;29;20397;-88
2023/05/21 12:28:15;;;;;;;3.97;2.47;;;;;;;;;;10201824;29;20144;-93
2023/05/21 12:33:18;;;;;;;6.57;2.72;;;;;;;;;;10204695;29;20071;-88
2023/05/21 12:38:19;;;;;;;7.30;2.97;;;;;;;;;;10203777;29;20502;-90
2023/05/21 12:43:22;;;;;;;3.47;3.08;;;;;;;;;;10216501;29;20055;-91
2023/05/21 12:48:23;;;;;;;4.82;3.20;;;;;;;;;;10199245;29;20579;-91
2023/05/21 12:53:24;;;;;;;3.97;2.75;;;;;;;;;;10208845;29;20038;-89
2023/05/21 12:58:37;;;;;;;6.15;3.13;;;;;;;;;;10207448;29;20403;-91
2023/05/21 13:09:52;;;;;;;4.38;3.00;;;;;;;;;;10208522;28;20047;-94
2023/05/21 13:14:54;;;;;;;4.85;2.85;;;;;;;;;;10217998;28;20074;-89
2023/05/21 13:20:14;;;;;;;7.20;4.32;;;;;;;;;;10219951;29;20059;-93
2023/05/21 13:25:20;;;;;;;7.75;4.80;;;;;;;;;;10218731;29;20041;-89
2023/05/21 13:30:21;;;;;;;7.75;5.57;;;;;;;;;;10208946;29;20387;-91
2023/05/21 13:35:38;;;;;;;6.70;4.15;;;;;;;;;;10231122;29;20040;-93
2023/05/21 13:46:05;;;;;;;4.57;3.38;;;;;;;;;;10212124;29;20170;-90
2023/05/21 13:51:06;;;;;;;5.10;2.92;;;;;;;;;;10216893;29;20391;-84
2023/05/21 13:56:07;;;;;;;5.28;3.38;;;;;;;;;;10229490;29;20036;-86
2023/05/21 14:01:08;;;;;;;3.85;2.70;;;;;;;;;;10214299;29;20046;-84
2023/05/21 14:06:10;;;;;;;6.57;2.92;;;;;;;;;;10231464;28;20517;-84
2023/05/21 14:11:11;;;;;;;5.43;3.20;;;;;;;;;;10250508;28;20046;-83
2023/05/21 14:16:12;;;;;;;4.88;3.47;;;;;;;;;;10255848;28;20670;-87
2023/05/21 14:21:13;;;;;;;6.50;3.95;;;;;;;;;;10246304;28;20023;-82
2023/05/21 14:26:14;;;;;;;5.65;3.50;;;;;;;;;;10252880;28;20066;-83
2023/05/21 14:31:15;;;;;;;6.65;3.53;;;;;;;;;;10226061;28;20071;-84
2023/05/21 14:36:17;;;;;;;4.03;3.38;;;;;;;;;;10221875;28;20047;-83
2023/05/21 14:41:18;;;;;;;6.55;3.35;;;;;;;;;;10238780;28;20036;-83
2023/05/21 14:46:19;;;;;;;8.50;4.35;;;;;;;;;;10235820;28;20035;-82
2023/05/21 14:51:20;;;;;;;5.13;3.13;;;;;;;;;;10245387;28;20209;-81
2023/05/21 14:56:25;;;;;;;6.65;4.30;;;;;;;;;;10223613;28;20102;-84
2023/05/21 15:01:26;;;;;;;6.27;3.50;;;;;;;;;;10226352;28;20043;-86
2023/05/21 15:06:26;;;;;;;6.72;4.85;;;;;;;;;;10245132;28;20055;-84
2023/05/21 15:11:27;;;;;;;5.78;3.55;;;;;;;;;;10238119;28;20062;-84
2023/05/21 15:16:28;;;;;;;9.95;6.80;;;;;;;;;;10254101;28;20049;-84
2023/05/21 15:21:30;;;;;;;5.93;3.22;;;;;;;;;;10226623;28;20610;-83
2023/05/21 15:26:31;;;;;;;6.53;3.42;;;;;;;;;;10228025;28;20752;-86
2023/05/21 15:31:32;;;;;;;9.00;4.18;;;;;;;;;;10234166;28;20133;-83
2023/05/21 15:36:33;;;;;;;6.43;3.67;;;;;;;;;;10246848;28;20163;-85
2023/05/21 15:41:37;;;;;;;6.30;4.32;;;;;;;;;;10226051;28;20027;-84
2023/05/21 15:46:38;;;;;;;5.80;3.77;;;;;;;;;;10243598;28;20148;-83
2023/05/21 15:51:39;;;;;;;8.88;4.20;;;;;;;;;;10243942;28;20858;-82
2023/05/21 15:56:41;;;;;;;6.72;3.85;;;;;;;;;;10243239;28;20039;-86
2023/05/21 16:01:42;;;;;;;7.43;3.40;;;;;;;;;;10225780;28;20041;-84
2023/05/21 16:06:43;;;;;;;6.72;3.30;;;;;;;;;;10242097;28;20054;-84
2023/05/21 16:11:44;;;;;;;5.40;3.33;;;;;;;;;;10243423;28;20062;-86
2023/05/21 16:16:45;;;;;;;5.40;3.38;;;;;;;;;;10225159;28;20039;-84
2023/05/21 16:21:46;;;;;;;5.00;3.20;;;;;;;;;;10254774;28;20126;-85
2023/05/21 16:26:48;;;;;;;5.93;3.30;;;;;;;;;;10241872;28;20031;-85
2023/05/21 16:31:49;;;;;;;7.15;3.33;;;;;;;;;;10223744;28;20143;-84
2023/05/21 16:36:50;;;;;;;4.75;2.85;;;;;;;;;;10242586;28;20031;-84
2023/05/21 16:41:53;;;;;;;7.05;3.80;;;;;;;;;;10241376;28;20035;-83
2023/05/21 16:46:55;;;;;;;5.30;3.17;;;;;;;;;;10241034;28;20365;-84
2023/05/21 16:51:56;;;;;;;3.83;2.88;;;;;;;;;;10224060;28;20145;-84
2023/05/21 16:56:57;;;;;;;4.03;2.88;;;;;;;;;;10240740;28;20038;-83
2023/05/21 17:01:58;;;;;;;6.47;2.80;;;;;;;;;;10234321;28;20034;-84
2023/05/21 17:07:00;;;;;;;4.22;2.60;;;;;;;;;;10241681;28;20047;-83
2023/05/21 17:12:01;;;;;;;5.97;3.05;;;;;;;;;;10244006;28;20062;-83
2023/05/21 17:17:02;;;;;;;4.50;2.58;;;;;;;;;;10239912;28;20099;-84
2023/05/21 17:22:03;;;;;;;5.30;2.95;;;;;;;;;;10243091;28;20125;-84
2023/05/21 17:27:04;;;;;;;4.05;2.85;;;;;;;;;;10249134;28;20023;-83
2023/05/21 17:32:05;;;;;;;5.18;2.50;;;;;;;;;;10246847;28;20096;-84
2023/05/21 17:37:06;;;;;;;7.20;3.40;;;;;;;;;;10225443;28;20404;-85
2023/05/21 17:42:07;;;;;;;4.95;2.92;;;;;;;;;;10243852;28;20047;-85
2023/05/21 17:47:08;;;;;;;7.28;3.45;;;;;;;;;;10245990;28;20035;-86
2023/05/21 17:52:09;;;;;;;3.13;2.70;;;;;;;;;;10230804;28;20122;-86
2023/05/21 17:57:10;;;;;;;5.45;2.80;;;;;;;;;;10246811;28;20043;-86
2023/05/21 18:02:12;;;;;;;7.90;2.70;;;;;;;;;;10239066;28;20137;-85
2023/05/21 18:07:13;;;;;;;5.35;2.67;;;;;;;;;;10246468;28;20063;-86
2023/05/21 18:12:14;;;;;;;6.60;3.33;;;;;;;;;;10233094;28;20070;-86
2023/05/21 18:17:15;;;;;;;3.75;3.22;;;;;;;;;;10255575;28;20039;-85
2023/05/21 18:22:16;;;;;;;6.60;3.20;;;;;;;;;;10259394;28;20042;-82
2023/05/21 18:27:17;;;;;;;6.55;2.80;;;;;;;;;;10246012;28;20067;-84
2023/05/21 18:32:18;;;;;;;5.50;3.42;;;;;;;;;;10256463;28;20142;-83
2023/05/21 18:37:19;;;;;;;6.28;3.75;;;;;;;;;;10241666;28;20043;-83
2023/05/21 18:42:20;;;;;;;7.05;3.63;;;;;;;;;;10245704;28;20160;-85
2023/05/21 18:47:21;;;;;;;7.13;3.65;;;;;;;;;;10253976;28;20042;-87
2023/05/21 18:52:22;;;;;;;5.72;3.63;;;;;;;;;;10240236;28;20062;-85
2023/05/21 18:57:23;;;;;;;6.45;3.85;;;;;;;;;;10254426;28;20083;-85
2023/05/21 19:02:25;;;;;;;5.07;3.25;;;;;;;;;;10247495;28;20030;-89
2023/05/21 19:07:26;;;;;;;5.65;2.83;;;;;;;;;;10225329;28;20059;-86
2023/05/21 19:12:30;;;;;;;3.85;2.72;;;;;;;;;;10229745;28;20031;-84
2023/05/21 19:17:32;;;;;;;8.00;3.33;;;;;;;;;;10239633;28;20039;-84
2023/05/21 19:22:33;;;;;;;4.00;3.00;;;;;;;;;;10244067;28;20611;-85
2023/05/21 19:27:34;;;;;;;4.38;3.08;;;;;;;;;;10235995;28;20042;-84
2023/05/21 19:32:35;;;;;;;7.68;3.67;;;;;;;;;;10226826;28;20160;-87
2023/05/21 19:37:36;;;;;;;6.90;3.10;;;;;;;;;;10243310;28;20074;-87
2023/05/21 19:42:37;;;;;;;7.13;3.65;;;;;;;;;;10251346;28;20050;-84
2023/05/21 19:47:39;;;;;;;4.97;3.13;;;;;;;;;;10239653;28;20578;-84
2023/05/21 19:52:41;;;;;;;5.75;3.00;;;;;;;;;;10241834;28;20034;-88
2023/05/21 19:57:42;;;;;;;4.28;3.03;;;;;;;;;;10246753;28;20078;-85
2023/05/21 20:02:43;;;;;;;5.22;3.33;;;;;;;;;;10251129;28;20028;-84
2023/05/21 20:07:44;;;;;;;4.40;2.90;;;;;;;;;;10242862;28;20126;-84
2023/05/21 20:12:45;;;;;;;3.70;2.83;;;;;;;;;;10242949;28;20019;-84
2023/05/21 20:17:49;;;;;;;6.40;3.42;;;;;;;;;;10246140;28;20139;-84
2023/05/21 20:22:50;;;;;;;3.50;2.75;;;;;;;;;;10241723;28;20102;-84
2023/05/21 20:27:52;;;;;;;6.97;3.08;;;;;;;;;;10245380;28;20034;-84
2023/05/21 20:32:53;;;;;;;4.65;2.90;;;;;;;;;;10248029;28;20172;-85
2023/05/21 20:37:54;;;;;;;6.20;3.20;;;;;;;;;;10240915;28;20208;-87
2023/05/21 20:42:55;;;;;;;6.43;3.20;;;;;;;;;;10229363;28;20515;-85
2023/05/21 20:47:57;;;;;;;4.88;2.75;;;;;;;;;;10248291;28;20027;-85
2023/05/21 20:52:58;;;;;;;3.50;2.53;;;;;;;;;;10241011;28;20031;-85
2023/05/21 20:57:59;;;;;;;4.45;3.00;;;;;;;;;;10214690;28;20054;-84
2023/05/21 21:03:02;;;;;;;5.22;2.95;;;;;;;;;;10241575;28;20028;-84
2023/05/21 21:08:04;;;;;;;10.70;3.10;;;;;;;;;;10234264;28;20079;-84
2023/05/21 21:13:06;;;;;;;5.78;2.80;;;;;;;;;;10218336;28;20027;-86
2023/05/21 21:18:06;;;;;;;7.55;3.35;;;;;;;;;;10231254;28;20067;-87
2023/05/21 21:23:07;;;;;;;7.78;4.05;;;;;;;;;;10228689;28;20126;-85
2023/05/21 21:28:09;;;;;;;8.60;3.40;;;;;;;;;;10262530;28;20042;-84
2023/05/21 21:33:10;;;;;;;4.97;3.00;;;;;;;;;;10252452;28;20030;-83
2023/05/21 21:38:11;;;;;;;8.18;3.10;;;;;;;;;;10231568;28;20047;-86
2023/05/21 21:43:13;;;;;;;5.53;2.28;;;;;;;;;;10248159;28;20031;-84
2023/05/21 21:48:15;;;;;;;5.63;3.28;;;;;;;;;;10249827;28;20039;-84
2023/05/21 21:53:16;;;;;;;5.43;2.75;;;;;;;;;;10239883;28;20106;-85
2023/05/21 21:58:17;;;;;;;5.28;2.75;;;;;;;;;;10230052;28;20047;-85
2023/05/21 22:03:18;;;;;;;3.63;2.08;;;;;;;;;;10251451;28;20043;-86
2023/05/21 22:08:19;;;;;;;5.30;2.88;;;;;;;;;;10229548;28;20515;-84
2023/05/21 22:13:20;;;;;;;5.68;2.80;;;;;;;;;;10256940;28;20043;-84
2023/05/21 22:18:22;;;;;;;6.88;3.17;;;;;;;;;;10232601;28;20079;-84
2023/05/21 22:23:23;;;;;;;4.35;3.05;;;;;;;;;;10246405;28;20487;-86
2023/05/21 22:28:24;;;;;;;5.93;3.10;;;;;;;;;;10246324;28;20035;-84
2023/05/21 22:33:25;;;;;;;6.07;3.10;;;;;;;;;;10254917;28;20035;-87
2023/05/21 22:38:26;;;;;;;5.85;2.70;;;;;;;;;;10252045;28;20039;-86
2023/05/21 22:43:27;;;;;;;3.70;2.58;;;;;;;;;;10246079;28;20046;-84
2023/05/21 22:48:29;;;;;;;8.27;3.30;;;;;;;;;;10252331;28;20492;-84
2023/05/21 22:53:31;;;;;;;7.55;3.30;;;;;;;;;;10227488;28;20039;-85
2023/05/21 22:58:32;;;;;;;6.60;3.65;;;;;;;;;;10227802;28;20054;-89
2023/05/21 23:03:33;;;;;;;5.50;3.25;;;;;;;;;;10232355;28;20039;-87
2023/05/21 23:08:33;;;;;;;6.10;3.20;;;;;;;;;;10242542;28;20051;-87
2023/05/21 23:13:34;;;;;;;6.22;3.13;;;;;;;;;;10245765;28;20042;-83
2023/05/21 23:18:36;;;;;;;4.57;3.78;;;;;;;;;;10238768;28;20047;-84
2023/05/21 23:23:36;;;;;;;6.82;3.83;;;;;;;;;;10245318;28;20436;-86
2023/05/21 23:28:38;;;;;;;5.32;3.63;;;;;;;;;;10244359;28;20037;-84
2023/05/21 23:33:40;;;;;;;5.00;3.20;;;;;;;;;;10248630;28;20463;-85
2023/05/21 23:38:41;;;;;;;4.68;2.75;;;;;;;;;;10236177;28;20035;-84
2023/05/21 23:43:42;;;;;;;5.32;2.90;;;;;;;;;;10241412;28;20035;-84
2023/05/21 23:48:43;;;;;;;6.82;2.97;;;;;;;;;;10240411;28;20028;-82
2023/05/21 23:53:44;;;;;;;6.20;2.78;;;;;;;;;;10239888;28;20120;-84
2023/05/21 23:58:45;;;;;;;5.40;3.47;;;;;;;;;;10242823;28;20056;-84
